sensor_id;sensor_type;location;lat;lon;timestamp;temperature;humidity
14934;DHT22;7560;51.364;12.384;2023-07-22T00:03:37;15.60;99.90
14934;DHT22;7560;51.364;12.384;2023-07-22T00:08:39;15.50;99.90
14934;DHT22;7560;51.364;12.384;2023-07-22T00:13:41;15.40;99.90
14934;DHT22;7560;51.364;12.384;2023-07-22T00:18:46;15.30;99.90
14934;DHT22;7560;51.364;12.384;2023-07-22T00:23:49;15.20;99.90
14934;DHT22;7560;51.364;12.384;2023-07-22T00:28:50;15.10;99.90
14934;DHT22;7560;51.364;12.384;2023-07-22T00:33:52;15.10;99.90
14934;DHT22;7560;51.364;12.384;2023-07-22T00:38:54;15.00;99.90
14934;DHT22;7560;51.364;12.384;2023-07-22T00:43:56;15.00;99.90
14934;DHT22;7560;51.364;12.384;2023-07-22T00:48:58;15.00;99.90
14934;DHT22;7560;51.364;12.384;2023-07-22T00:54:00;15.00;99.90
14934;DHT22;7560;51.364;12.384;2023-07-22T00:59:02;14.90;99.90
14934;DHT22;7560;51.364;12.384;2023-07-22T01:04:04;14.90;99.90
14934;DHT22;7560;51.364;12.384;2023-07-22T01:09:06;14.80;99.90
14934;DHT22;7560;51.364;12.384;2023-07-22T01:14:09;14.90;99.90
14934;DHT22;7560;51.364;12.384;2023-07-22T01:19:28;14.80;99.90
14934;DHT22;7560;51.364;12.384;2023-07-22T01:24:31;14.80;99.90
14934;DHT22;7560;51.364;12.384;2023-07-22T01:29:33;14.70;99.90
14934;DHT22;7560;51.364;12.384;2023-07-22T01:34:35;14.80;99.90
14934;DHT22;7560;51.364;12.384;2023-07-22T01:39:37;14.80;99.90
14934;DHT22;7560;51.364;12.384;2023-07-22T01:44:40;14.80;99.90
14934;DHT22;7560;51.364;12.384;2023-07-22T01:49:42;14.90;99.90
14934;DHT22;7560;51.364;12.384;2023-07-22T01:54:44;14.90;99.90
14934;DHT22;7560;51.364;12.384;2023-07-22T01:59:46;14.90;99.90
14934;DHT22;7560;51.364;12.384;2023-07-22T02:04:48;15.00;99.90
14934;DHT22;7560;51.364;12.384;2023-07-22T02:09:50;14.90;99.90
14934;DHT22;7560;51.364;12.384;2023-07-22T02:14:53;14.80;99.90
14934;DHT22;7560;51.364;12.384;2023-07-22T02:19:55;14.70;99.90
14934;DHT22;7560;51.364;12.384;2023-07-22T02:24:57;14.60;99.90
14934;DHT22;7560;51.364;12.384;2023-07-22T02:29:59;14.50;99.90
14934;DHT22;7560;51.364;12.384;2023-07-22T02:35:01;14.70;99.90
14934;DHT22;7560;51.364;12.384;2023-07-22T02:40:02;14.80;99.90
14934;DHT22;7560;51.364;12.384;2023-07-22T02:45:09;14.80;99.90
14934;DHT22;7560;51.364;12.384;2023-07-22T02:50:11;14.70;99.90
14934;DHT22;7560;51.364;12.384;2023-07-22T02:55:15;14.70;99.90
14934;DHT22;7560;51.364;12.384;2023-07-22T03:00:20;14.80;99.90
14934;DHT22;7560;51.364;12.384;2023-07-22T03:05:25;14.90;99.90
14934;DHT22;7560;51.364;12.384;2023-07-22T03:10:27;15.00;99.90
14934;DHT22;7560;51.364;12.384;2023-07-22T03:15:30;14.90;99.90
14934;DHT22;7560;51.364;12.384;2023-07-22T03:20:32;14.80;99.90
14934;DHT22;7560;51.364;12.384;2023-07-22T03:25:35;14.80;99.90
14934;DHT22;7560;51.364;12.384;2023-07-22T03:30:37;14.80;99.90
14934;DHT22;7560;51.364;12.384;2023-07-22T03:35:39;14.80;99.90
14934;DHT22;7560;51.364;12.384;2023-07-22T03:40:42;14.90;99.90
14934;DHT22;7560;51.364;12.384;2023-07-22T03:45:44;15.00;99.90
14934;DHT22;7560;51.364;12.384;2023-07-22T03:50:46;15.00;99.90
14934;DHT22;7560;51.364;12.384;2023-07-22T03:55:47;14.80;99.90
14934;DHT22;7560;51.364;12.384;2023-07-22T04:00:50;14.60;99.90
14934;DHT22;7560;51.364;12.384;2023-07-22T04:05:55;14.50;99.90
14934;DHT22;7560;51.364;12.384;2023-07-22T04:10:58;14.40;99.90
14934;DHT22;7560;51.364;12.384;2023-07-22T04:15:59;14.30;99.90
14934;DHT22;7560;51.364;12.384;2023-07-22T04:21:01;14.40;99.90
14934;DHT22;7560;51.364;12.384;2023-07-22T04:26:03;14.40;99.90
14934;DHT22;7560;51.364;12.384;2023-07-22T04:31:06;14.40;99.90
14934;DHT22;7560;51.364;12.384;2023-07-22T04:36:08;14.40;99.90
14934;DHT22;7560;51.364;12.384;2023-07-22T04:41:10;14.40;99.90
14934;DHT22;7560;51.364;12.384;2023-07-22T04:46:12;14.40;99.90
14934;DHT22;7560;51.364;12.384;2023-07-22T04:51:13;14.50;99.90
14934;DHT22;7560;51.364;12.384;2023-07-22T04:56:15;14.50;99.90
14934;DHT22;7560;51.364;12.384;2023-07-22T05:01:17;14.60;99.90
14934;DHT22;7560;51.364;12.384;2023-07-22T05:06:19;14.60;99.90
14934;DHT22;7560;51.364;12.384;2023-07-22T05:11:21;14.70;99.90
14934;DHT22;7560;51.364;12.384;2023-07-22T05:16:24;14.80;99.90
14934;DHT22;7560;51.364;12.384;2023-07-22T05:21:27;14.90;99.90
14934;DHT22;7560;51.364;12.384;2023-07-22T05:26:31;14.90;99.90
14934;DHT22;7560;51.364;12.384;2023-07-22T05:31:33;15.00;99.90
14934;DHT22;7560;51.364;12.384;2023-07-22T05:36:35;15.10;99.90
14934;DHT22;7560;51.364;12.384;2023-07-22T05:41:36;15.10;99.90
14934;DHT22;7560;51.364;12.384;2023-07-22T05:46:42;15.20;99.90
14934;DHT22;7560;51.364;12.384;2023-07-22T05:51:43;15.30;99.90
14934;DHT22;7560;51.364;12.384;2023-07-22T05:56:45;15.40;99.90
14934;DHT22;7560;51.364;12.384;2023-07-22T06:01:47;15.50;99.90
14934;DHT22;7560;51.364;12.384;2023-07-22T06:06:49;15.60;99.90
14934;DHT22;7560;51.364;12.384;2023-07-22T06:11:51;15.70;99.90
14934;DHT22;7560;51.364;12.384;2023-07-22T06:16:53;15.80;99.90
14934;DHT22;7560;51.364;12.384;2023-07-22T06:21:55;15.90;99.90
14934;DHT22;7560;51.364;12.384;2023-07-22T06:26:57;16.00;99.90
14934;DHT22;7560;51.364;12.384;2023-07-22T06:31:58;16.20;99.90
14934;DHT22;7560;51.364;12.384;2023-07-22T06:37:00;16.30;99.90
14934;DHT22;7560;51.364;12.384;2023-07-22T06:42:02;16.50;99.90
14934;DHT22;7560;51.364;12.384;2023-07-22T06:47:04;16.60;99.90
14934;DHT22;7560;51.364;12.384;2023-07-22T06:52:06;16.70;99.90
14934;DHT22;7560;51.364;12.384;2023-07-22T06:57:08;16.80;99.90
14934;DHT22;7560;51.364;12.384;2023-07-22T07:02:10;16.80;99.90
14934;DHT22;7560;51.364;12.384;2023-07-22T07:07:13;17.00;99.90
14934;DHT22;7560;51.364;12.384;2023-07-22T07:12:15;17.10;99.90
14934;DHT22;7560;51.364;12.384;2023-07-22T07:17:17;17.40;99.90
14934;DHT22;7560;51.364;12.384;2023-07-22T07:22:19;17.70;99.90
14934;DHT22;7560;51.364;12.384;2023-07-22T07:27:21;17.70;99.90
14934;DHT22;7560;51.364;12.384;2023-07-22T07:32:22;17.80;99.90
14934;DHT22;7560;51.364;12.384;2023-07-22T07:37:25;17.90;99.90
14934;DHT22;7560;51.364;12.384;2023-07-22T07:42:27;17.90;99.90
14934;DHT22;7560;51.364;12.384;2023-07-22T07:47:29;18.20;99.90
14934;DHT22;7560;51.364;12.384;2023-07-22T07:52:31;18.40;99.90
14934;DHT22;7560;51.364;12.384;2023-07-22T07:57:33;18.50;99.90
14934;DHT22;7560;51.364;12.384;2023-07-22T08:02:35;18.40;99.90
14934;DHT22;7560;51.364;12.384;2023-07-22T08:07:38;18.20;99.90
14934;DHT22;7560;51.364;12.384;2023-07-22T08:12:40;18.30;99.90
14934;DHT22;7560;51.364;12.384;2023-07-22T08:17:42;18.70;99.90
14934;DHT22;7560;51.364;12.384;2023-07-22T08:22:44;18.60;99.90
14934;DHT22;7560;51.364;12.384;2023-07-22T08:27:46;18.70;99.90
14934;DHT22;7560;51.364;12.384;2023-07-22T08:32:48;18.70;99.90
14934;DHT22;7560;51.364;12.384;2023-07-22T08:37:49;18.90;99.90
14934;DHT22;7560;51.364;12.384;2023-07-22T08:42:52;19.10;99.90
14934;DHT22;7560;51.364;12.384;2023-07-22T08:47:56;19.20;99.90
14934;DHT22;7560;51.364;12.384;2023-07-22T08:53:00;19.00;99.90
14934;DHT22;7560;51.364;12.384;2023-07-22T08:58:07;19.20;99.90
14934;DHT22;7560;51.364;12.384;2023-07-22T09:03:11;19.40;99.90
14934;DHT22;7560;51.364;12.384;2023-07-22T09:08:13;19.70;99.90
14934;DHT22;7560;51.364;12.384;2023-07-22T09:13:15;19.50;99.90
14934;DHT22;7560;51.364;12.384;2023-07-22T09:18:19;19.40;99.90
14934;DHT22;7560;51.364;12.384;2023-07-22T09:23:37;19.60;99.90
14934;DHT22;7560;51.364;12.384;2023-07-22T09:28:49;20.00;99.90
14934;DHT22;7560;51.364;12.384;2023-07-22T09:33:52;20.50;99.90
14934;DHT22;7560;51.364;12.384;2023-07-22T09:39:01;20.60;99.90
14934;DHT22;7560;51.364;12.384;2023-07-22T09:44:09;20.50;99.90
14934;DHT22;7560;51.364;12.384;2023-07-22T09:49:12;21.00;99.90
14934;DHT22;7560;51.364;12.384;2023-07-22T09:54:14;21.20;99.90
14934;DHT22;7560;51.364;12.384;2023-07-22T09:59:18;21.60;99.90
14934;DHT22;7560;51.364;12.384;2023-07-22T10:04:21;21.40;99.90
14934;DHT22;7560;51.364;12.384;2023-07-22T10:09:27;21.50;99.90
14934;DHT22;7560;51.364;12.384;2023-07-22T10:14:29;21.70;99.90
14934;DHT22;7560;51.364;12.384;2023-07-22T10:19:34;21.70;99.90
14934;DHT22;7560;51.364;12.384;2023-07-22T10:24:36;22.00;99.90
14934;DHT22;7560;51.364;12.384;2023-07-22T10:29:39;21.70;99.90
14934;DHT22;7560;51.364;12.384;2023-07-22T10:34:41;22.00;99.90
14934;DHT22;7560;51.364;12.384;2023-07-22T10:39:43;22.30;99.90
14934;DHT22;7560;51.364;12.384;2023-07-22T10:44:45;22.30;99.90
14934;DHT22;7560;51.364;12.384;2023-07-22T10:49:49;22.30;99.90
14934;DHT22;7560;51.364;12.384;2023-07-22T10:54:51;22.50;99.90
14934;DHT22;7560;51.364;12.384;2023-07-22T10:59:55;22.40;99.90
14934;DHT22;7560;51.364;12.384;2023-07-22T11:05:02;22.50;99.90
14934;DHT22;7560;51.364;12.384;2023-07-22T11:10:15;22.10;99.90
14934;DHT22;7560;51.364;12.384;2023-07-22T11:15:20;22.30;99.90
14934;DHT22;7560;51.364;12.384;2023-07-22T11:20:24;22.70;99.90
14934;DHT22;7560;51.364;12.384;2023-07-22T11:25:26;23.50;99.90
14934;DHT22;7560;51.364;12.384;2023-07-22T11:30:28;23.80;99.90
14934;DHT22;7560;51.364;12.384;2023-07-22T11:35:30;24.10;99.90
14934;DHT22;7560;51.364;12.384;2023-07-22T11:40:35;24.50;99.90
14934;DHT22;7560;51.364;12.384;2023-07-22T11:45:38;24.40;99.90
14934;DHT22;7560;51.364;12.384;2023-07-22T11:50:40;23.80;99.90
14934;DHT22;7560;51.364;12.384;2023-07-22T11:55:42;23.30;99.90
14934;DHT22;7560;51.364;12.384;2023-07-22T12:00:45;23.30;99.90
14934;DHT22;7560;51.364;12.384;2023-07-22T12:06:06;23.60;99.90
14934;DHT22;7560;51.364;12.384;2023-07-22T12:11:08;24.00;99.90
14934;DHT22;7560;51.364;12.384;2023-07-22T12:16:10;24.40;99.60
14934;DHT22;7560;51.364;12.384;2023-07-22T12:21:12;24.50;99.00
14934;DHT22;7560;51.364;12.384;2023-07-22T12:26:15;24.40;99.40
14934;DHT22;7560;51.364;12.384;2023-07-22T12:31:16;24.40;98.60
14934;DHT22;7560;51.364;12.384;2023-07-22T12:36:18;24.90;98.30
14934;DHT22;7560;51.364;12.384;2023-07-22T12:41:20;24.60;97.70
14934;DHT22;7560;51.364;12.384;2023-07-22T12:46:22;24.70;97.70
14934;DHT22;7560;51.364;12.384;2023-07-22T12:51:24;25.20;97.60
14934;DHT22;7560;51.364;12.384;2023-07-22T12:56:26;25.00;96.80
14934;DHT22;7560;51.364;12.384;2023-07-22T13:01:28;24.60;97.50
14934;DHT22;7560;51.364;12.384;2023-07-22T13:06:30;24.60;97.40
14934;DHT22;7560;51.364;12.384;2023-07-22T13:11:32;24.80;96.50
14934;DHT22;7560;51.364;12.384;2023-07-22T13:16:34;24.10;97.50
14934;DHT22;7560;51.364;12.384;2023-07-22T13:21:36;24.90;96.20
14934;DHT22;7560;51.364;12.384;2023-07-22T13:26:38;25.30;95.80
14934;DHT22;7560;51.364;12.384;2023-07-22T13:31:41;25.20;95.20
14934;DHT22;7560;51.364;12.384;2023-07-22T13:36:43;25.50;95.20
14934;DHT22;7560;51.364;12.384;2023-07-22T13:41:44;26.00;94.60
14934;DHT22;7560;51.364;12.384;2023-07-22T13:46:47;26.10;94.30
14934;DHT22;7560;51.364;12.384;2023-07-22T13:51:49;26.10;93.30
14934;DHT22;7560;51.364;12.384;2023-07-22T13:56:51;25.50;93.80
14934;DHT22;7560;51.364;12.384;2023-07-22T14:01:53;26.00;94.00
14934;DHT22;7560;51.364;12.384;2023-07-22T14:06:55;26.20;92.90
14934;DHT22;7560;51.364;12.384;2023-07-22T14:11:56;26.70;92.40
14934;DHT22;7560;51.364;12.384;2023-07-22T14:16:58;25.90;92.60
14934;DHT22;7560;51.364;12.384;2023-07-22T14:22:00;26.80;91.70
14934;DHT22;7560;51.364;12.384;2023-07-22T14:27:02;27.40;90.80
14934;DHT22;7560;51.364;12.384;2023-07-22T14:32:04;27.20;90.10
14934;DHT22;7560;51.364;12.384;2023-07-22T14:37:06;26.50;90.20
14934;DHT22;7560;51.364;12.384;2023-07-22T14:42:08;26.60;88.40
14934;DHT22;7560;51.364;12.384;2023-07-22T14:47:10;26.80;88.40
14934;DHT22;7560;51.364;12.384;2023-07-22T14:52:12;26.90;88.90
14934;DHT22;7560;51.364;12.384;2023-07-22T14:57:13;28.10;86.70
14934;DHT22;7560;51.364;12.384;2023-07-22T15:02:15;28.40;85.40
14934;DHT22;7560;51.364;12.384;2023-07-22T15:07:17;28.60;83.80
14934;DHT22;7560;51.364;12.384;2023-07-22T15:12:19;27.70;85.60
14934;DHT22;7560;51.364;12.384;2023-07-22T15:17:20;29.10;83.80
14934;DHT22;7560;51.364;12.384;2023-07-22T15:22:24;29.60;79.90
14934;DHT22;7560;51.364;12.384;2023-07-22T15:27:26;28.60;81.70
14934;DHT22;7560;51.364;12.384;2023-07-22T15:32:28;29.70;80.30
14934;DHT22;7560;51.364;12.384;2023-07-22T15:37:31;30.20;77.20
14934;DHT22;7560;51.364;12.384;2023-07-22T15:42:32;29.60;76.70
14934;DHT22;7560;51.364;12.384;2023-07-22T15:47:34;28.70;78.10
14934;DHT22;7560;51.364;12.384;2023-07-22T15:52:37;28.00;78.80
14934;DHT22;7560;51.364;12.384;2023-07-22T15:57:38;27.50;79.30
14934;DHT22;7560;51.364;12.384;2023-07-22T16:02:40;27.20;80.30
14934;DHT22;7560;51.364;12.384;2023-07-22T16:07:42;27.20;80.30
14934;DHT22;7560;51.364;12.384;2023-07-22T16:12:45;27.40;79.00
14934;DHT22;7560;51.364;12.384;2023-07-22T16:17:47;26.90;80.10
14934;DHT22;7560;51.364;12.384;2023-07-22T16:22:49;26.70;80.70
14934;DHT22;7560;51.364;12.384;2023-07-22T16:27:51;26.50;81.00
14934;DHT22;7560;51.364;12.384;2023-07-22T16:32:53;26.70;80.60
14934;DHT22;7560;51.364;12.384;2023-07-22T16:37:55;26.70;80.90
14934;DHT22;7560;51.364;12.384;2023-07-22T16:42:57;26.90;81.10
14934;DHT22;7560;51.364;12.384;2023-07-22T16:47:58;27.60;80.90
14934;DHT22;7560;51.364;12.384;2023-07-22T16:53:00;28.00;79.40
14934;DHT22;7560;51.364;12.384;2023-07-22T16:58:05;27.90;78.30
14934;DHT22;7560;51.364;12.384;2023-07-22T17:03:07;27.70;78.90
14934;DHT22;7560;51.364;12.384;2023-07-22T17:08:09;27.30;79.00
14934;DHT22;7560;51.364;12.384;2023-07-22T17:13:11;27.00;80.20
14934;DHT22;7560;51.364;12.384;2023-07-22T17:18:14;27.30;80.20
14934;DHT22;7560;51.364;12.384;2023-07-22T17:23:15;27.60;79.80
14934;DHT22;7560;51.364;12.384;2023-07-22T17:28:17;27.80;80.10
14934;DHT22;7560;51.364;12.384;2023-07-22T17:33:19;27.50;79.70
14934;DHT22;7560;51.364;12.384;2023-07-22T17:38:21;27.00;80.10
14934;DHT22;7560;51.364;12.384;2023-07-22T17:43:25;26.50;81.90
14934;DHT22;7560;51.364;12.384;2023-07-22T17:48:27;26.40;81.90
14934;DHT22;7560;51.364;12.384;2023-07-22T17:53:29;26.20;82.50
14934;DHT22;7560;51.364;12.384;2023-07-22T17:58:31;25.80;82.90
14934;DHT22;7560;51.364;12.384;2023-07-22T18:03:33;25.60;83.90
14934;DHT22;7560;51.364;12.384;2023-07-22T18:08:35;25.30;84.10
14934;DHT22;7560;51.364;12.384;2023-07-22T18:13:37;25.10;84.80
14934;DHT22;7560;51.364;12.384;2023-07-22T18:18:39;24.70;85.80
14934;DHT22;7560;51.364;12.384;2023-07-22T18:23:40;24.50;86.70
14934;DHT22;7560;51.364;12.384;2023-07-22T18:28:42;24.30;88.00
14934;DHT22;7560;51.364;12.384;2023-07-22T18:33:44;24.00;89.10
14934;DHT22;7560;51.364;12.384;2023-07-22T18:38:46;23.80;90.00
14934;DHT22;7560;51.364;12.384;2023-07-22T18:43:48;23.60;90.30
14934;DHT22;7560;51.364;12.384;2023-07-22T18:48:49;23.30;91.10
14934;DHT22;7560;51.364;12.384;2023-07-22T18:53:51;23.10;91.60
14934;DHT22;7560;51.364;12.384;2023-07-22T18:58:53;22.90;92.00
14934;DHT22;7560;51.364;12.384;2023-07-22T19:03:56;22.80;92.00
14934;DHT22;7560;51.364;12.384;2023-07-22T19:08:58;22.60;92.80
14934;DHT22;7560;51.364;12.384;2023-07-22T19:14:00;22.40;93.40
14934;DHT22;7560;51.364;12.384;2023-07-22T19:19:01;22.30;93.80
14934;DHT22;7560;51.364;12.384;2023-07-22T19:24:04;22.10;94.40
14934;DHT22;7560;51.364;12.384;2023-07-22T19:29:06;21.90;94.70
14934;DHT22;7560;51.364;12.384;2023-07-22T19:34:09;21.80;95.00
14934;DHT22;7560;51.364;12.384;2023-07-22T19:39:11;21.70;95.30
14934;DHT22;7560;51.364;12.384;2023-07-22T19:44:15;21.60;96.00
14934;DHT22;7560;51.364;12.384;2023-07-22T19:49:17;21.50;96.00
14934;DHT22;7560;51.364;12.384;2023-07-22T19:54:19;21.30;96.60
14934;DHT22;7560;51.364;12.384;2023-07-22T19:59:20;21.20;96.80
14934;DHT22;7560;51.364;12.384;2023-07-22T20:04:22;21.10;97.20
14934;DHT22;7560;51.364;12.384;2023-07-22T20:09:24;21.00;97.40
14934;DHT22;7560;51.364;12.384;2023-07-22T20:14:26;20.90;97.60
14934;DHT22;7560;51.364;12.384;2023-07-22T20:19:28;20.80;97.70
14934;DHT22;7560;51.364;12.384;2023-07-22T20:24:32;20.70;98.00
14934;DHT22;7560;51.364;12.384;2023-07-22T20:29:36;20.70;98.70
14934;DHT22;7560;51.364;12.384;2023-07-22T20:34:38;20.50;99.20
14934;DHT22;7560;51.364;12.384;2023-07-22T20:39:40;20.50;99.30
14934;DHT22;7560;51.364;12.384;2023-07-22T20:44:42;20.60;99.90
14934;DHT22;7560;51.364;12.384;2023-07-22T20:49:44;20.60;99.90
14934;DHT22;7560;51.364;12.384;2023-07-22T20:54:46;20.60;99.90
14934;DHT22;7560;51.364;12.384;2023-07-22T20:59:49;20.60;99.90
14934;DHT22;7560;51.364;12.384;2023-07-22T21:04:54;20.50;99.90
14934;DHT22;7560;51.364;12.384;2023-07-22T21:09:55;20.60;99.90
14934;DHT22;7560;51.364;12.384;2023-07-22T21:14:57;20.70;99.90
14934;DHT22;7560;51.364;12.384;2023-07-22T21:19:59;20.60;99.90
14934;DHT22;7560;51.364;12.384;2023-07-22T21:25:01;20.60;99.90
14934;DHT22;7560;51.364;12.384;2023-07-22T21:30:03;20.50;99.90
14934;DHT22;7560;51.364;12.384;2023-07-22T21:35:05;20.30;99.90
14934;DHT22;7560;51.364;12.384;2023-07-22T21:40:08;20.30;99.90
14934;DHT22;7560;51.364;12.384;2023-07-22T21:45:10;20.20;99.90
14934;DHT22;7560;51.364;12.384;2023-07-22T21:50:12;20.10;99.90
14934;DHT22;7560;51.364;12.384;2023-07-22T21:55:14;20.00;99.90
14934;DHT22;7560;51.364;12.384;2023-07-22T22:00:16;20.00;99.90
14934;DHT22;7560;51.364;12.384;2023-07-22T22:05:18;19.90;99.90
14934;DHT22;7560;51.364;12.384;2023-07-22T22:10:20;19.80;99.90
14934;DHT22;7560;51.364;12.384;2023-07-22T22:15:22;19.70;99.90
14934;DHT22;7560;51.364;12.384;2023-07-22T22:20:23;19.60;99.90
14934;DHT22;7560;51.364;12.384;2023-07-22T22:25:25;19.60;99.90
14934;DHT22;7560;51.364;12.384;2023-07-22T22:30:27;19.60;99.90
14934;DHT22;7560;51.364;12.384;2023-07-22T22:35:29;19.50;99.90
14934;DHT22;7560;51.364;12.384;2023-07-22T22:40:31;19.40;99.90
14934;DHT22;7560;51.364;12.384;2023-07-22T22:45:33;19.40;99.90
14934;DHT22;7560;51.364;12.384;2023-07-22T22:50:35;19.40;99.90
14934;DHT22;7560;51.364;12.384;2023-07-22T22:55:37;19.30;99.90
14934;DHT22;7560;51.364;12.384;2023-07-22T23:00:39;19.30;99.90
14934;DHT22;7560;51.364;12.384;2023-07-22T23:05:40;19.20;99.90
14934;DHT22;7560;51.364;12.384;2023-07-22T23:10:46;19.20;99.90
14934;DHT22;7560;51.364;12.384;2023-07-22T23:15:48;19.20;99.90
14934;DHT22;7560;51.364;12.384;2023-07-22T23:20:50;19.20;99.90
14934;DHT22;7560;51.364;12.384;2023-07-22T23:25:52;19.20;99.90
14934;DHT22;7560;51.364;12.384;2023-07-22T23:30:55;19.30;99.90
14934;DHT22;7560;51.364;12.384;2023-07-22T23:35:59;19.30;99.90
14934;DHT22;7560;51.364;12.384;2023-07-22T23:41:01;19.30;99.90
14934;DHT22;7560;51.364;12.384;2023-07-22T23:46:03;19.20;99.90
14934;DHT22;7560;51.364;12.384;2023-07-22T23:51:05;19.10;99.90
14934;DHT22;7560;51.364;12.384;2023-07-22T23:56:07;19.00;99.90
